Terminal Aerodrome Forecast
Issued by NWS Blacksburg, VA

Current Version | Previous Version | Text Only | Print | Product List | Glossary Off
Versions: 1 2 3 4 5 6 7 8 9 10 11 12 13 14 15 16 17 18 19 20 21 22 23 24 25 26 27 28 29 30 31 32 33 34

997
FTUS41 KRNK 060520
TAFBLF
TAF
KBLF 060520Z 0606/0706 12011G21KT P6SM -RA BKN015 OVC035
     FM060800 12013G23KT 3SM -RA BR SCT007 OVC012
     FM061000 12010G20KT 1SM -RA BR OVC003
     FM062200 VRB05KT 3SM -DZ BR OVC004
     FM070200 28007KT 4SM BR OVC005=

USA.gov is the U.S. government's official web portal to all federal, state and local government web resources and services.